createdAt,value
2017-07-21T00:02:10.279Z,13.17
2017-07-21T00:04:38.616Z,11.80
2017-07-21T00:07:06.912Z,13.13
2017-07-21T00:09:35.240Z,14.30
2017-07-21T00:12:03.564Z,12.60
2017-07-21T00:14:31.859Z,15.10
2017-07-21T00:17:00.188Z,13.93
2017-07-21T00:19:29.290Z,13.77
2017-07-21T00:21:58.342Z,14.10
2017-07-21T00:24:26.777Z,13.50
2017-07-21T00:26:55.100Z,13.97
2017-07-21T00:29:23.440Z,13.87
2017-07-21T00:31:51.734Z,15.20
2017-07-21T00:34:20.126Z,14.97
2017-07-21T00:36:48.520Z,14.13
2017-07-21T00:39:16.821Z,14.17
2017-07-21T00:41:45.157Z,13.90
2017-07-21T00:44:13.490Z,14.10
2017-07-21T00:46:41.875Z,13.87
2017-07-21T00:49:10.209Z,14.60
2017-07-21T00:51:38.532Z,14.97
2017-07-21T00:54:06.861Z,14.53
2017-07-21T00:56:35.242Z,14.80
2017-07-21T00:59:03.635Z,14.00
2017-07-21T01:01:31.926Z,13.77
2017-07-21T01:04:00.257Z,13.33
2017-07-21T01:06:28.590Z,14.30
2017-07-21T01:08:56.880Z,14.70
2017-07-21T01:11:25.194Z,14.70
2017-07-21T01:13:54.293Z,16.50
2017-07-21T01:16:22.592Z,13.33
2017-07-21T01:18:50.914Z,14.53
2017-07-21T01:21:19.216Z,16.00
2017-07-21T01:23:47.553Z,14.80
2017-07-21T01:26:15.956Z,14.23
2017-07-21T01:28:44.266Z,14.37
2017-07-21T01:31:12.614Z,13.60
2017-07-21T01:33:41.012Z,13.67
2017-07-21T01:36:09.302Z,15.53
2017-07-21T01:38:37.636Z,15.17
2017-07-21T01:41:05.961Z,15.43
2017-07-21T01:43:34.287Z,15.90
2017-07-21T01:46:03.392Z,14.47
2017-07-21T01:48:32.605Z,14.03
2017-07-21T01:51:01.708Z,14.63
2017-07-21T01:53:30.794Z,16.13
2017-07-21T01:55:59.091Z,14.47
2017-07-21T01:58:27.446Z,14.93
2017-07-21T02:00:55.881Z,16.50
2017-07-21T02:03:24.272Z,16.57
2017-07-21T02:05:52.597Z,15.80
2017-07-21T02:08:20.953Z,14.97
2017-07-21T02:10:49.352Z,16.13
2017-07-21T02:13:18.548Z,14.77
2017-07-21T02:15:46.839Z,15.73
2017-07-21T02:18:15.331Z,15.90
2017-07-21T02:20:43.626Z,14.13
2017-07-21T02:23:11.929Z,14.37
2017-07-21T02:25:41.017Z,14.43
2017-07-21T02:28:09.514Z,16.13
2017-07-21T02:30:37.823Z,14.37
2017-07-21T02:33:06.884Z,14.80
2017-07-21T02:35:35.316Z,15.40
2017-07-21T02:38:03.609Z,15.70
2017-07-21T02:40:32.813Z,14.27
2017-07-21T02:43:01.928Z,14.10
2017-07-21T02:45:31.026Z,15.03
2017-07-21T02:47:59.324Z,15.00
2017-07-21T02:50:28.514Z,13.60
2017-07-21T02:52:56.972Z,15.53
2017-07-21T02:55:25.300Z,15.83
2017-07-21T02:57:53.588Z,15.27
2017-07-21T03:00:22.079Z,14.50
2017-07-21T03:02:50.385Z,16.73
2017-07-21T03:05:18.777Z,15.80
2017-07-21T03:07:47.867Z,15.63
2017-07-21T03:10:16.197Z,15.20
2017-07-21T03:12:44.659Z,14.60
2017-07-21T03:15:13.052Z,14.50
2017-07-21T03:17:41.351Z,16.33
2017-07-21T03:20:10.453Z,16.37
2017-07-21T03:22:50.680Z,14.70
2017-07-21T03:25:19.932Z,16.53
2017-07-21T03:27:48.320Z,15.43
2017-07-21T03:30:16.608Z,15.97
2017-07-21T03:32:44.991Z,15.77
2017-07-21T03:35:13.289Z,14.40
2017-07-21T03:37:41.675Z,15.10
2017-07-21T03:40:10.003Z,15.60
2017-07-21T03:42:38.300Z,15.27
2017-07-21T03:45:06.629Z,15.03
2017-07-21T03:47:35.229Z,16.20
2017-07-21T03:50:03.548Z,15.47
2017-07-21T03:52:32.643Z,14.17
2017-07-21T03:55:00.982Z,15.70
2017-07-21T03:57:29.315Z,16.60
2017-07-21T03:59:57.611Z,15.83
2017-07-21T04:02:26.004Z,14.30
2017-07-21T04:04:54.291Z,15.10
2017-07-21T04:07:22.579Z,15.10
2017-07-21T04:09:50.964Z,14.93
2017-07-21T04:12:19.288Z,14.40
2017-07-21T04:14:47.623Z,14.13
2017-07-21T04:17:15.945Z,14.53
2017-07-21T04:19:44.323Z,14.33
2017-07-21T04:22:12.638Z,14.13
2017-07-21T04:24:41.822Z,14.23
2017-07-21T04:27:10.157Z,13.23
2017-07-21T04:29:38.446Z,12.57
2017-07-21T04:32:06.743Z,14.43
2017-07-21T04:34:35.087Z,13.83
2017-07-21T04:37:03.416Z,12.40
2017-07-21T04:39:31.877Z,12.97
2017-07-21T04:42:00.203Z,13.40
2017-07-21T04:44:28.549Z,12.90
2017-07-21T04:46:56.950Z,12.33
2017-07-21T04:49:25.267Z,11.90
2017-07-21T04:51:53.562Z,12.63
2017-07-21T04:54:21.882Z,11.10
2017-07-21T04:56:50.200Z,11.87
2017-07-21T04:59:18.576Z,11.20
2017-07-21T05:01:46.927Z,10.93
2017-07-21T05:04:15.243Z,11.27
2017-07-21T05:06:43.564Z,9.83
2017-07-21T05:09:11.956Z,11.67
2017-07-21T05:11:40.279Z,11.27
2017-07-21T05:14:08.571Z,9.93
2017-07-21T05:16:36.902Z,10.23
2017-07-21T05:19:05.424Z,9.80
2017-07-21T05:21:33.743Z,9.10
2017-07-21T05:24:02.195Z,10.03
2017-07-21T05:26:30.482Z,9.53
2017-07-21T05:28:58.883Z,8.47
2017-07-21T05:31:27.279Z,7.50
2017-07-21T05:33:55.555Z,8.33
2017-07-21T05:36:23.952Z,7.50
2017-07-21T05:38:52.254Z,7.10
2017-07-21T05:41:21.313Z,5.70
2017-07-21T05:43:49.640Z,5.67
2017-07-21T05:46:17.918Z,7.07
2017-07-21T05:48:46.321Z,6.87
2017-07-21T05:51:14.817Z,6.37
2017-07-21T05:53:43.100Z,5.50
2017-07-21T05:56:11.388Z,5.27
2017-07-21T05:58:39.695Z,4.70
2017-07-21T06:01:08.795Z,5.10
2017-07-21T06:03:37.181Z,5.30
2017-07-21T06:06:05.464Z,4.80
2017-07-21T06:08:34.165Z,6.40
2017-07-21T06:11:02.438Z,5.60
2017-07-21T06:13:30.727Z,4.33
2017-07-21T06:15:59.044Z,4.93
2017-07-21T06:18:28.103Z,4.67
2017-07-21T06:20:56.421Z,5.00
2017-07-21T06:23:24.703Z,5.00
2017-07-21T06:25:53.020Z,5.13
2017-07-21T06:28:21.327Z,4.70
2017-07-21T06:30:49.691Z,5.30
2017-07-21T06:33:18.007Z,4.60
2017-07-21T06:35:46.372Z,4.20
2017-07-21T06:38:14.765Z,3.97
2017-07-21T06:40:43.147Z,4.17
2017-07-21T06:43:11.431Z,4.53
2017-07-21T06:45:39.710Z,4.40
2017-07-21T06:48:08.029Z,4.07
2017-07-21T06:50:36.308Z,4.33
2017-07-21T06:53:04.632Z,3.37
2017-07-21T06:55:32.969Z,4.90
2017-07-21T06:58:01.252Z,3.83
2017-07-21T07:00:29.540Z,4.90
2017-07-21T07:02:57.952Z,3.90
2017-07-21T07:05:26.240Z,4.50
2017-07-21T07:07:54.624Z,3.57
2017-07-21T07:10:22.923Z,3.43
2017-07-21T07:12:51.231Z,3.87
2017-07-21T07:15:20.307Z,3.27
2017-07-21T07:17:48.599Z,3.47
2017-07-21T07:20:16.899Z,3.37
2017-07-21T07:22:45.193Z,3.50
2017-07-21T07:25:13.485Z,3.23
2017-07-21T07:27:41.858Z,3.90
2017-07-21T07:30:10.168Z,3.07
2017-07-21T07:32:38.573Z,3.47
2017-07-21T07:35:07.665Z,3.80
2017-07-21T07:37:35.952Z,3.30
2017-07-21T07:40:04.254Z,3.13
2017-07-21T07:42:33.312Z,3.87
2017-07-21T07:45:01.603Z,3.33
2017-07-21T07:47:29.928Z,3.87
2017-07-21T07:49:58.311Z,2.97
2017-07-21T07:52:26.608Z,3.83
2017-07-21T07:54:55.021Z,3.43
2017-07-21T07:57:24.062Z,3.20
2017-07-21T07:59:52.397Z,2.97
2017-07-21T08:02:20.702Z,2.90
2017-07-21T08:04:49.779Z,3.00
2017-07-21T08:07:18.087Z,3.40
2017-07-21T08:09:46.480Z,3.37
2017-07-21T08:12:14.857Z,3.90
2017-07-21T08:14:43.252Z,2.20
2017-07-21T08:17:11.586Z,3.17
2017-07-21T08:19:39.872Z,3.23
2017-07-21T08:22:08.211Z,3.60
2017-07-21T08:24:36.516Z,3.10
2017-07-21T08:27:04.794Z,3.53
2017-07-21T08:29:33.102Z,3.27
2017-07-21T08:32:02.229Z,2.77
2017-07-21T08:34:31.271Z,3.20
2017-07-21T08:36:59.603Z,3.20
2017-07-21T08:39:27.889Z,3.27
2017-07-21T08:41:56.166Z,2.50
2017-07-21T08:44:24.474Z,2.97
2017-07-21T08:46:53.568Z,3.30
2017-07-21T08:49:21.855Z,3.70
2017-07-21T08:51:50.176Z,3.17
2017-07-21T08:54:18.468Z,3.07
2017-07-21T08:56:46.756Z,3.90
2017-07-21T08:59:15.852Z,3.47
2017-07-21T09:01:44.904Z,2.87
2017-07-21T09:04:13.323Z,3.60
2017-07-21T09:06:41.616Z,3.30
2017-07-21T09:09:09.904Z,3.53
2017-07-21T09:11:38.290Z,3.43
2017-07-21T09:14:06.583Z,2.90
2017-07-21T09:16:34.904Z,3.83
2017-07-21T09:19:03.962Z,3.93
2017-07-21T09:21:32.370Z,4.17
2017-07-21T09:24:00.651Z,2.87
2017-07-21T09:26:28.959Z,3.90
2017-07-21T09:28:57.280Z,2.93
2017-07-21T09:31:25.586Z,3.93
2017-07-21T09:33:53.908Z,4.60
2017-07-21T09:36:22.224Z,3.80
2017-07-21T09:38:50.536Z,2.93
2017-07-21T09:41:19.614Z,3.80
2017-07-21T09:43:47.937Z,4.10
2017-07-21T09:46:16.983Z,4.00
2017-07-21T09:48:45.300Z,4.37
2017-07-21T09:51:13.687Z,4.57
2017-07-21T09:53:42.012Z,3.27
2017-07-21T09:56:10.291Z,4.60
2017-07-21T09:58:39.577Z,4.43
2017-07-21T10:01:07.967Z,4.27
2017-07-21T10:03:36.466Z,3.77
2017-07-21T10:06:04.771Z,4.23
2017-07-21T10:08:33.147Z,4.13
2017-07-21T10:11:01.463Z,3.53
2017-07-21T10:13:30.534Z,3.37
2017-07-21T10:15:58.922Z,3.57
2017-07-21T10:18:27.217Z,3.53
2017-07-21T10:20:55.492Z,3.53
2017-07-21T10:23:24.004Z,3.57
2017-07-21T10:25:52.396Z,3.50
2017-07-21T10:28:20.715Z,3.67
2017-07-21T10:30:49.800Z,3.70
2017-07-21T10:33:18.111Z,3.77
2017-07-21T10:35:47.208Z,3.00
2017-07-21T10:38:16.291Z,3.40
2017-07-21T10:40:44.596Z,4.03
2017-07-21T10:43:12.972Z,2.83
2017-07-21T10:45:41.283Z,2.43
2017-07-21T10:48:10.336Z,2.73
2017-07-21T10:50:38.690Z,3.20
2017-07-21T10:53:07.915Z,3.03
2017-07-21T10:55:36.203Z,2.40
2017-07-21T10:58:04.524Z,2.93
2017-07-21T11:00:32.824Z,3.50
2017-07-21T11:03:01.127Z,2.87
2017-07-21T11:05:29.410Z,3.13
2017-07-21T11:07:57.709Z,3.07
2017-07-21T11:10:26.020Z,2.87
2017-07-21T11:12:55.959Z,2.30
2017-07-21T11:15:25.127Z,2.80
2017-07-21T11:17:53.407Z,2.80
2017-07-21T11:20:21.714Z,3.00
2017-07-21T11:22:50.044Z,2.93
2017-07-21T11:25:18.364Z,2.90
2017-07-21T11:27:46.677Z,3.23
2017-07-21T11:30:14.951Z,3.20
2017-07-21T11:32:43.289Z,3.20
2017-07-21T11:35:12.331Z,3.40
2017-07-21T11:37:40.629Z,3.40
2017-07-21T11:40:08.936Z,3.50
2017-07-21T11:42:37.250Z,3.33
2017-07-21T11:45:05.559Z,3.30
2017-07-21T11:47:34.638Z,3.20
2017-07-21T11:50:02.923Z,3.17
2017-07-21T11:52:31.255Z,2.60
2017-07-21T11:54:59.613Z,3.00
2017-07-21T11:57:27.919Z,3.70
2017-07-21T11:59:56.978Z,2.77
2017-07-21T12:02:25.298Z,2.87
2017-07-21T12:04:53.683Z,2.97
2017-07-21T12:07:21.976Z,3.50
2017-07-21T12:09:50.370Z,2.60
2017-07-21T12:12:18.691Z,3.10
2017-07-21T12:14:47.043Z,3.03
2017-07-21T12:17:15.337Z,3.10
2017-07-21T12:19:43.858Z,3.30
2017-07-21T12:22:12.912Z,2.67
2017-07-21T12:24:41.226Z,3.50
2017-07-21T12:27:09.616Z,2.80
2017-07-21T12:29:37.922Z,3.67
2017-07-21T12:32:07.016Z,3.30
2017-07-21T12:34:35.342Z,4.73
2017-07-21T12:37:03.690Z,2.63
2017-07-21T12:39:32.007Z,2.90
2017-07-21T12:42:01.086Z,2.47
2017-07-21T12:44:29.375Z,3.00
2017-07-21T12:46:57.709Z,3.73
2017-07-21T12:49:25.996Z,3.33
2017-07-21T12:51:54.279Z,2.67
2017-07-21T12:54:22.599Z,3.50
2017-07-21T12:56:50.907Z,3.77
2017-07-21T12:59:19.197Z,3.20
2017-07-21T13:01:47.514Z,3.37
2017-07-21T13:04:15.786Z,3.10
2017-07-21T13:06:44.109Z,2.80
2017-07-21T13:09:13.152Z,3.00
2017-07-21T13:11:41.475Z,3.20
2017-07-21T13:14:09.759Z,3.30
2017-07-21T13:16:39.672Z,3.30
2017-07-21T13:19:08.319Z,3.67
2017-07-21T13:21:37.366Z,3.17
2017-07-21T13:24:05.679Z,3.23
2017-07-21T13:26:33.996Z,3.60
2017-07-21T13:29:03.079Z,3.40
2017-07-21T13:31:31.364Z,2.40
2017-07-21T13:33:59.689Z,2.97
2017-07-21T13:36:28.730Z,2.40
2017-07-21T13:38:57.064Z,2.27
2017-07-21T13:41:25.443Z,2.77
2017-07-21T13:43:53.872Z,2.30
2017-07-21T13:46:22.959Z,2.87
2017-07-21T13:48:51.267Z,2.37
2017-07-21T13:51:20.356Z,2.37
2017-07-21T13:53:48.756Z,2.60
2017-07-21T13:56:17.809Z,2.70
2017-07-21T13:58:46.131Z,3.00
2017-07-21T14:01:14.448Z,2.77
2017-07-21T14:03:43.540Z,2.30
2017-07-21T14:06:11.846Z,2.53
2017-07-21T14:08:40.936Z,1.77
2017-07-21T14:11:09.235Z,1.33
2017-07-21T14:13:38.297Z,1.90
2017-07-21T14:16:06.607Z,2.53
2017-07-21T14:18:34.924Z,1.97
2017-07-21T14:21:04.003Z,1.97
2017-07-21T14:23:32.282Z,2.50
2017-07-21T14:26:00.687Z,1.63
2017-07-21T14:28:29.021Z,1.93
2017-07-21T14:30:57.371Z,2.17
2017-07-21T14:33:25.682Z,1.90
2017-07-21T14:35:54.757Z,1.73
2017-07-21T14:38:23.045Z,2.50
2017-07-21T14:40:51.378Z,2.10
2017-07-21T14:43:20.432Z,1.70
2017-07-21T14:45:48.730Z,1.80
2017-07-21T14:48:17.070Z,2.33
2017-07-21T14:50:45.355Z,2.30
2017-07-21T14:53:14.441Z,2.00
2017-07-21T14:55:42.828Z,1.73
2017-07-21T14:58:11.235Z,1.97
2017-07-21T15:00:39.596Z,2.40
2017-07-21T15:03:07.904Z,1.70
2017-07-21T15:05:36.263Z,2.10
2017-07-21T15:08:04.579Z,2.17
2017-07-21T15:10:32.869Z,2.30
2017-07-21T15:13:01.182Z,2.20
2017-07-21T15:15:30.267Z,1.73
2017-07-21T15:17:58.542Z,2.10
2017-07-21T15:20:26.899Z,2.90
2017-07-21T15:22:55.170Z,2.17
2017-07-21T15:25:23.489Z,1.83
2017-07-21T15:27:51.826Z,1.67
2017-07-21T15:30:20.103Z,1.40
2017-07-21T15:32:48.390Z,1.50
2017-07-21T15:35:16.707Z,1.80
2017-07-21T15:37:45.748Z,1.83
2017-07-21T15:40:14.077Z,2.00
2017-07-21T15:42:42.368Z,1.87
2017-07-21T15:45:10.764Z,1.80
2017-07-21T15:47:39.144Z,1.40
2017-07-21T15:50:07.480Z,1.73
2017-07-21T15:52:35.768Z,2.10
2017-07-21T15:55:04.104Z,2.00
2017-07-21T15:57:32.441Z,1.33
2017-07-21T16:00:00.804Z,2.03
2017-07-21T16:02:29.123Z,2.17
2017-07-21T16:04:57.485Z,1.80
2017-07-21T16:07:25.873Z,1.97
2017-07-21T16:09:54.190Z,1.73
2017-07-21T16:12:23.234Z,2.20
2017-07-21T16:14:51.664Z,2.67
2017-07-21T16:17:19.992Z,2.23
2017-07-21T16:19:48.292Z,2.13
2017-07-21T16:22:16.563Z,2.00
2017-07-21T16:24:44.916Z,2.33
2017-07-21T16:27:13.200Z,2.40
2017-07-21T16:29:41.524Z,1.87
2017-07-21T16:32:10.562Z,2.33
2017-07-21T16:34:38.886Z,1.80
2017-07-21T16:37:07.285Z,1.93
2017-07-21T16:39:35.679Z,2.50
2017-07-21T16:42:03.964Z,1.70
2017-07-21T16:44:32.286Z,2.20
2017-07-21T16:47:00.578Z,2.33
2017-07-21T16:49:28.864Z,2.33
2017-07-21T16:51:57.219Z,1.87
2017-07-21T16:54:25.537Z,2.03
2017-07-21T16:56:54.724Z,1.60
2017-07-21T16:59:23.114Z,1.77
2017-07-21T17:01:51.428Z,2.63
2017-07-21T17:04:20.508Z,2.63
2017-07-21T17:06:48.900Z,2.03
2017-07-21T17:09:17.224Z,2.37
2017-07-21T17:11:45.512Z,2.13
2017-07-21T17:14:13.830Z,2.47
2017-07-21T17:16:42.111Z,2.50
2017-07-21T17:19:10.639Z,2.00
2017-07-21T17:21:38.964Z,2.40
2017-07-21T17:24:08.017Z,2.20
2017-07-21T17:26:36.339Z,2.17
2017-07-21T17:29:04.628Z,2.60
2017-07-21T17:31:32.907Z,2.30
2017-07-21T17:34:01.226Z,2.63
2017-07-21T17:36:30.271Z,2.43
2017-07-21T17:38:58.604Z,2.60
2017-07-21T17:41:26.998Z,3.10
2017-07-21T17:43:55.301Z,3.30
2017-07-21T17:46:24.484Z,3.30
2017-07-21T17:48:52.774Z,3.17
2017-07-21T17:51:21.154Z,3.40
2017-07-21T17:53:49.848Z,2.93
2017-07-21T17:56:18.234Z,2.80
2017-07-21T17:58:46.552Z,2.60
2017-07-21T18:01:14.940Z,3.40
2017-07-21T18:03:43.327Z,3.93
2017-07-21T18:06:11.625Z,2.93
2017-07-21T18:08:40.059Z,2.90
2017-07-21T18:11:08.420Z,3.20
2017-07-21T18:13:37.612Z,2.90
2017-07-21T18:16:05.929Z,3.30
2017-07-21T18:18:35.054Z,3.17
2017-07-21T18:21:03.367Z,3.30
2017-07-21T18:23:31.695Z,4.13
2017-07-21T18:26:00.020Z,4.03
2017-07-21T18:28:28.372Z,2.90
2017-07-21T18:30:56.726Z,3.17
2017-07-21T18:33:25.039Z,3.17
2017-07-21T18:35:53.426Z,3.10
2017-07-21T18:38:21.728Z,3.80
2017-07-21T18:40:50.370Z,3.50
2017-07-21T18:43:18.710Z,2.90
2017-07-21T18:45:47.024Z,4.00
2017-07-21T18:48:16.080Z,3.43
2017-07-21T18:50:44.517Z,5.60
2017-07-21T18:53:13.650Z,3.27
2017-07-21T18:55:41.939Z,3.70
2017-07-21T18:58:10.279Z,3.63
2017-07-21T19:00:38.676Z,3.87
2017-07-21T19:03:06.964Z,4.23
2017-07-21T19:05:35.267Z,4.43
2017-07-21T19:08:04.324Z,4.10
2017-07-21T19:10:32.657Z,4.13
2017-07-21T19:13:00.944Z,3.73
2017-07-21T19:15:30.124Z,4.00
2017-07-21T19:17:59.273Z,3.97
2017-07-21T19:20:28.506Z,4.93
2017-07-21T19:22:57.691Z,3.80
2017-07-21T19:25:27.010Z,4.63
2017-07-21T19:27:56.783Z,4.50
2017-07-21T19:30:26.013Z,3.97
2017-07-21T19:32:56.208Z,4.47
2017-07-21T19:35:25.372Z,4.10
2017-07-21T19:37:53.681Z,4.70
2017-07-21T19:40:22.726Z,4.17
2017-07-21T19:42:51.036Z,4.60
2017-07-21T19:45:19.353Z,5.10
2017-07-21T19:47:47.671Z,5.13
2017-07-21T19:50:15.954Z,5.00
2017-07-21T19:52:44.999Z,5.30
2017-07-21T19:55:13.317Z,5.40
2017-07-21T19:57:41.631Z,5.03
2017-07-21T20:00:09.908Z,5.17
2017-07-21T20:02:38.223Z,5.80
2017-07-21T20:05:06.512Z,6.40
2017-07-21T20:07:34.869Z,6.10
2017-07-21T20:10:03.244Z,6.17
2017-07-21T20:12:31.644Z,5.90
2017-07-21T20:14:59.944Z,5.93
2017-07-21T20:17:28.227Z,6.93
2017-07-21T20:19:56.560Z,6.17
2017-07-21T20:22:24.911Z,6.63
2017-07-21T20:24:53.199Z,6.93
2017-07-21T20:27:22.301Z,7.07
2017-07-21T20:29:50.593Z,7.67
2017-07-21T20:32:18.912Z,7.67
2017-07-21T20:34:48.100Z,7.70
2017-07-21T20:37:16.375Z,7.17
2017-07-21T20:39:44.707Z,7.57
2017-07-21T20:42:13.803Z,7.80
2017-07-21T20:44:42.912Z,8.10
2017-07-21T20:47:11.999Z,8.00
2017-07-21T20:49:40.391Z,8.67
2017-07-21T20:52:08.722Z,7.60
2017-07-21T20:54:37.004Z,7.80
2017-07-21T20:57:05.360Z,8.87
2017-07-21T20:59:33.705Z,7.63
2017-07-21T21:02:01.992Z,8.37
2017-07-21T21:04:30.308Z,8.60
2017-07-21T21:06:58.711Z,8.13
2017-07-21T21:09:26.991Z,7.87
2017-07-21T21:11:55.291Z,7.90
2017-07-21T21:14:23.603Z,7.83
2017-07-21T21:16:52.650Z,7.63
2017-07-21T21:19:21.052Z,8.60
2017-07-21T21:21:49.349Z,8.17
2017-07-21T21:24:17.668Z,8.50
2017-07-21T21:26:46.058Z,8.47
2017-07-21T21:29:14.451Z,8.37
2017-07-21T21:31:42.835Z,7.73
2017-07-21T21:34:11.251Z,8.90
2017-07-21T21:36:40.330Z,8.10
2017-07-21T21:39:08.676Z,9.60
2017-07-21T21:41:37.020Z,8.10
2017-07-21T21:44:05.316Z,8.90
2017-07-21T21:46:33.699Z,7.87
2017-07-21T21:49:02.036Z,8.47
2017-07-21T21:51:30.384Z,8.23
2017-07-21T21:53:58.677Z,9.60
2017-07-21T21:56:27.065Z,8.00
2017-07-21T21:58:56.136Z,8.63
2017-07-21T22:01:24.465Z,8.67
2017-07-21T22:03:52.778Z,8.27
2017-07-21T22:06:21.072Z,8.40
2017-07-21T22:08:49.431Z,7.83
2017-07-21T22:11:17.743Z,8.70
2017-07-21T22:13:46.103Z,9.10
2017-07-21T22:16:14.436Z,8.23
2017-07-21T22:18:42.731Z,10.27
2017-07-21T22:21:11.081Z,8.43
2017-07-21T22:23:39.455Z,8.83
2017-07-21T22:26:07.776Z,8.53
2017-07-21T22:28:36.864Z,9.47
2017-07-21T22:31:05.157Z,9.93
2017-07-21T22:33:33.475Z,9.43
2017-07-21T22:36:01.764Z,9.80
2017-07-21T22:38:30.125Z,9.83
2017-07-21T22:40:58.432Z,9.40
2017-07-21T22:43:27.491Z,9.67
2017-07-21T22:45:55.817Z,10.33
2017-07-21T22:48:24.106Z,9.30
2017-07-21T22:50:52.479Z,9.43
2017-07-21T22:53:20.772Z,9.93
2017-07-21T22:55:49.090Z,9.77
2017-07-21T22:58:18.180Z,9.30
2017-07-21T23:00:46.474Z,10.17
2017-07-21T23:03:15.574Z,9.97
2017-07-21T23:05:44.668Z,9.30
2017-07-21T23:08:13.067Z,11.50
2017-07-21T23:10:41.387Z,9.83
2017-07-21T23:13:09.689Z,11.27
2017-07-21T23:15:38.020Z,9.10
2017-07-21T23:18:06.319Z,10.03
2017-07-21T23:20:34.639Z,10.53
2017-07-21T23:23:03.686Z,9.37
2017-07-21T23:25:32.013Z,11.10
2017-07-21T23:28:00.410Z,10.07
2017-07-21T23:30:28.810Z,10.27
2017-07-21T23:32:57.187Z,10.47
2017-07-21T23:35:25.512Z,11.30
2017-07-21T23:37:53.868Z,10.47
2017-07-21T23:40:22.267Z,10.33
2017-07-21T23:42:50.602Z,10.40
2017-07-21T23:45:18.949Z,9.87
2017-07-21T23:47:47.327Z,10.47
2017-07-21T23:50:15.649Z,9.87
2017-07-21T23:52:43.934Z,10.50
2017-07-21T23:55:13.026Z,10.50
2017-07-21T23:57:42.084Z,9.77
